createdAt,value
2022-11-27T00:14:22.000Z,998.49
2022-11-27T00:28:58.000Z,998.45
2022-11-27T00:43:32.000Z,998.30
2022-11-27T00:58:08.000Z,998.29
2022-11-27T01:12:47.000Z,998.40
2022-11-27T01:27:25.000Z,998.35
2022-11-27T01:42:00.000Z,998.29
2022-11-27T01:56:38.000Z,998.18
2022-11-27T02:11:15.000Z,997.95
2022-11-27T02:25:51.000Z,997.78
2022-11-27T02:40:29.000Z,997.68
2022-11-27T02:55:02.000Z,997.71
2022-11-27T03:09:39.000Z,997.35
2022-11-27T03:24:07.000Z,997.09
2022-11-27T03:38:44.000Z,996.90
2022-11-27T03:53:22.000Z,996.89
2022-11-27T04:08:01.000Z,996.66
2022-11-27T04:22:39.000Z,996.81
2022-11-27T04:37:17.000Z,996.98
2022-11-27T04:51:55.000Z,996.89
2022-11-27T05:06:34.000Z,996.63
2022-11-27T05:21:12.000Z,996.43
2022-11-27T05:35:49.000Z,996.15
2022-11-27T05:50:17.000Z,996.22
2022-11-27T06:04:53.000Z,995.89
2022-11-27T06:19:25.000Z,995.77
2022-11-27T06:34:02.000Z,995.73
2022-11-27T06:48:39.000Z,995.74
2022-11-27T07:03:16.000Z,995.36
2022-11-27T07:17:53.000Z,995.42
2022-11-27T07:32:27.000Z,995.25
2022-11-27T07:47:04.000Z,995.12
2022-11-27T08:01:40.000Z,995.12
2022-11-27T08:16:18.000Z,994.94
2022-11-27T08:30:56.000Z,994.68
2022-11-27T08:45:25.000Z,994.53
2022-11-27T09:00:04.000Z,994.29
2022-11-27T09:14:42.000Z,994.17
2022-11-27T09:29:20.000Z,994.22
2022-11-27T09:43:57.000Z,994.04
2022-11-27T09:58:34.000Z,994.05
2022-11-27T10:13:12.000Z,993.55
2022-11-27T10:27:49.000Z,993.78
2022-11-27T10:42:28.000Z,993.55
2022-11-27T10:57:12.000Z,993.20
2022-11-27T11:02:09.000Z,993.01
2022-11-27T11:16:44.000Z,993.25
2022-11-27T11:31:22.000Z,993.08
2022-11-27T11:45:51.000Z,992.69
2022-11-27T12:00:23.000Z,992.43
2022-11-27T12:14:59.000Z,992.13
2022-11-27T12:29:37.000Z,992.01
2022-11-27T12:44:12.000Z,991.80
2022-11-27T12:58:47.000Z,991.44
2022-11-27T13:13:25.000Z,991.20
2022-11-27T13:28:00.000Z,990.66
2022-11-27T13:42:34.000Z,990.14
2022-11-27T13:57:10.000Z,989.52
2022-11-27T14:11:45.000Z,990.22
2022-11-27T14:26:20.000Z,989.69
2022-11-27T14:40:55.000Z,989.92
2022-11-27T14:55:29.000Z,990.26
2022-11-27T15:10:04.000Z,990.21
2022-11-27T15:24:40.000Z,990.24
2022-11-27T15:39:16.000Z,989.98
2022-11-27T15:53:46.000Z,990.07
2022-11-27T16:08:21.000Z,989.87
2022-11-27T16:22:58.000Z,989.92
2022-11-27T16:37:27.000Z,989.47
2022-11-27T16:51:57.000Z,989.20
2022-11-27T17:06:33.000Z,988.81
2022-11-27T17:21:10.000Z,988.31
2022-11-27T17:35:45.000Z,988.25
2022-11-27T17:50:22.000Z,987.81
2022-11-27T18:04:59.000Z,987.55
2022-11-27T18:19:36.000Z,987.57
2022-11-27T18:34:09.000Z,987.57
2022-11-27T18:48:42.000Z,987.28
2022-11-27T19:03:19.000Z,987.10
2022-11-27T19:17:55.000Z,986.62
2022-11-27T19:32:33.000Z,986.53
2022-11-27T19:47:10.000Z,986.34
2022-11-27T20:01:46.000Z,986.53
2022-11-27T20:16:24.000Z,986.55
2022-11-27T20:31:01.000Z,986.38
2022-11-27T20:45:35.000Z,986.50
2022-11-27T21:00:09.000Z,986.30
2022-11-27T21:14:44.000Z,986.06
2022-11-27T21:29:18.000Z,985.92
2022-11-27T21:43:48.000Z,985.72
2022-11-27T21:58:26.000Z,985.87
2022-11-27T22:12:53.000Z,985.86
2022-11-27T22:27:29.000Z,985.86
2022-11-27T22:42:06.000Z,985.48
2022-11-27T22:56:42.000Z,984.93
2022-11-27T23:11:21.000Z,985.33
2022-11-27T23:25:58.000Z,985.15
2022-11-27T23:40:36.000Z,985.00
2022-11-27T23:55:12.000Z,984.86
